createdAt,value
2022-10-14T00:00:43.701Z,82.83
2022-10-14T00:03:31.300Z,82.72
2022-10-14T00:06:04.511Z,82.76
2022-10-14T00:08:36.266Z,82.81
2022-10-14T00:11:12.792Z,82.78
2022-10-14T00:13:43.983Z,82.89
2022-10-14T00:16:20.939Z,83.03
2022-10-14T00:18:52.482Z,83.00
2022-10-14T00:21:23.743Z,83.02
2022-10-14T00:23:55.051Z,83.09
2022-10-14T00:26:28.715Z,83.04
2022-10-14T00:29:01.139Z,83.15
2022-10-14T00:31:32.769Z,83.17
2022-10-14T00:34:04.094Z,83.20
2022-10-14T00:36:35.236Z,83.40
2022-10-14T00:39:06.277Z,83.56
2022-10-14T00:41:36.150Z,83.72
2022-10-14T00:44:09.254Z,83.69
2022-10-14T00:46:41.759Z,83.66
2022-10-14T00:49:15.881Z,83.62
2022-10-14T00:51:50.082Z,83.85
2022-10-14T00:54:25.503Z,83.91
2022-10-14T00:56:56.830Z,83.88
2022-10-14T00:59:28.233Z,83.85
2022-10-14T01:01:59.334Z,83.90
2022-10-14T01:04:30.489Z,83.98
2022-10-14T01:07:03.619Z,83.89
2022-10-14T01:09:40.084Z,83.87
2022-10-14T01:12:34.072Z,83.78
2022-10-14T01:15:12.559Z,83.62
2022-10-14T01:17:54.045Z,83.51
2022-10-14T01:20:40.837Z,83.49
2022-10-14T01:23:32.094Z,83.30
2022-10-14T01:26:13.755Z,83.01
2022-10-14T01:28:52.747Z,82.81
2022-10-14T01:31:31.431Z,82.76
2022-10-14T01:34:07.342Z,82.87
2022-10-14T01:36:43.842Z,82.78
2022-10-14T01:39:19.073Z,82.82
2022-10-14T01:41:53.766Z,82.87
2022-10-14T01:44:27.120Z,83.24
2022-10-14T01:47:00.203Z,83.32
2022-10-14T01:49:35.803Z,83.36
2022-10-14T01:52:11.921Z,83.41
2022-10-14T01:54:46.339Z,83.49
2022-10-14T01:57:21.592Z,83.50
2022-10-14T01:59:53.583Z,83.41
2022-10-14T02:02:25.676Z,83.32
2022-10-14T02:04:57.064Z,83.33
2022-10-14T02:07:35.344Z,83.41
2022-10-14T02:10:20.237Z,83.66
2022-10-14T02:13:03.904Z,83.65
2022-10-14T02:15:46.941Z,83.79
2022-10-14T02:18:25.812Z,83.74
2022-10-14T02:21:00.908Z,83.67
2022-10-14T02:23:37.051Z,83.60
2022-10-14T02:26:09.412Z,83.54
2022-10-14T02:28:42.457Z,83.57
2022-10-14T02:31:15.882Z,83.55
2022-10-14T02:33:51.960Z,83.71
2022-10-14T02:36:26.361Z,83.78
2022-10-14T02:39:00.271Z,83.81
2022-10-14T02:41:35.306Z,83.98
2022-10-14T02:44:08.091Z,84.06
2022-10-14T02:46:42.307Z,84.26
2022-10-14T02:49:13.376Z,84.45
2022-10-14T02:51:44.335Z,84.27
2022-10-14T02:54:15.659Z,84.22
2022-10-14T02:56:47.098Z,84.15
2022-10-14T02:59:17.990Z,84.26
2022-10-14T03:01:50.009Z,84.25
2022-10-14T03:04:21.230Z,84.25
2022-10-14T03:06:52.914Z,84.29
2022-10-14T03:09:24.231Z,84.52
2022-10-14T03:11:55.489Z,84.60
2022-10-14T03:14:26.446Z,84.53
2022-10-14T03:16:57.271Z,84.49
2022-10-14T03:19:28.344Z,84.40
2022-10-14T03:21:59.463Z,84.37
2022-10-14T03:24:30.393Z,84.41
2022-10-14T03:27:01.698Z,84.32
2022-10-14T03:29:32.810Z,84.32
2022-10-14T03:32:02.253Z,84.13
2022-10-14T03:34:33.539Z,83.94
2022-10-14T03:37:04.535Z,83.77
2022-10-14T03:39:34.357Z,83.75
2022-10-14T03:42:06.155Z,83.83
2022-10-14T03:44:37.082Z,83.88
2022-10-14T03:47:08.352Z,83.70
2022-10-14T03:49:39.374Z,83.73
2022-10-14T03:52:10.607Z,83.61
2022-10-14T03:54:39.818Z,83.55
2022-10-14T03:57:10.852Z,83.58
2022-10-14T03:59:42.359Z,83.76
2022-10-14T04:02:13.370Z,83.82
2022-10-14T04:04:45.113Z,83.96
2022-10-14T04:07:16.317Z,83.99
2022-10-14T04:09:47.914Z,84.23
2022-10-14T04:12:19.077Z,84.41
2022-10-14T04:14:50.161Z,84.38
2022-10-14T04:17:19.527Z,84.44
2022-10-14T04:19:50.663Z,84.47
2022-10-14T04:22:23.476Z,84.57
2022-10-14T04:24:54.474Z,84.47
2022-10-14T04:27:25.549Z,84.51
2022-10-14T04:29:56.351Z,84.42
2022-10-14T04:32:27.212Z,84.45
2022-10-14T04:34:58.224Z,84.35
2022-10-14T04:37:31.319Z,84.39
2022-10-14T04:40:02.461Z,84.32
2022-10-14T04:42:33.698Z,84.29
2022-10-14T04:45:04.806Z,84.31
2022-10-14T04:47:35.898Z,84.32
2022-10-14T04:50:07.988Z,84.13
2022-10-14T04:52:38.966Z,84.06
2022-10-14T04:55:11.887Z,83.92
2022-10-14T04:57:44.060Z,83.85
2022-10-14T05:00:17.043Z,83.64
2022-10-14T05:02:55.031Z,83.42
2022-10-14T05:05:29.083Z,83.13
2022-10-14T05:08:03.057Z,83.17
2022-10-14T05:10:34.060Z,82.97
2022-10-14T05:13:05.367Z,82.70
2022-10-14T05:15:36.506Z,82.55
2022-10-14T05:18:07.836Z,82.52
2022-10-14T05:20:39.512Z,82.64
2022-10-14T05:23:10.553Z,82.60
2022-10-14T05:25:41.485Z,82.69
2022-10-14T05:28:10.851Z,82.75
2022-10-14T05:30:41.621Z,82.96
2022-10-14T05:33:12.953Z,83.24
2022-10-14T05:35:58.571Z,83.23
2022-10-14T05:38:32.030Z,83.29
2022-10-14T05:41:03.139Z,83.53
2022-10-14T05:43:34.183Z,83.65
2022-10-14T05:46:03.492Z,83.85
2022-10-14T05:48:34.275Z,83.95
2022-10-14T05:51:05.977Z,83.98
2022-10-14T05:53:39.263Z,84.07
2022-10-14T05:56:11.488Z,84.20
2022-10-14T05:58:42.578Z,84.17
2022-10-14T06:01:13.884Z,84.22
2022-10-14T06:03:45.025Z,84.20
2022-10-14T06:06:16.613Z,84.33
2022-10-14T06:08:47.664Z,84.39
2022-10-14T06:11:19.292Z,84.42
2022-10-14T06:13:50.371Z,84.51
2022-10-14T06:16:21.783Z,84.57
2022-10-14T06:18:54.576Z,84.51
2022-10-14T06:21:26.255Z,84.52
2022-10-14T06:23:57.675Z,84.49
2022-10-14T06:26:29.064Z,84.46
2022-10-14T06:29:00.088Z,84.30
2022-10-14T06:31:32.437Z,84.25
2022-10-14T06:34:07.460Z,84.29
2022-10-14T06:36:38.956Z,84.26
2022-10-14T06:39:11.099Z,84.18
2022-10-14T06:41:41.891Z,84.18
2022-10-14T06:44:13.891Z,84.22
2022-10-14T06:46:44.939Z,84.14
2022-10-14T06:49:15.858Z,84.13
2022-10-14T06:51:46.917Z,84.16
2022-10-14T06:54:19.735Z,84.12
2022-10-14T06:56:50.949Z,84.30
2022-10-14T06:59:21.986Z,84.32
2022-10-14T07:01:53.158Z,84.24
2022-10-14T07:04:25.285Z,84.21
2022-10-14T07:06:58.593Z,84.24
2022-10-14T07:09:29.553Z,84.31
2022-10-14T07:12:01.480Z,84.16
2022-10-14T07:14:32.640Z,83.97
2022-10-14T07:17:03.974Z,83.87
2022-10-14T07:19:35.030Z,83.73
2022-10-14T07:22:06.363Z,83.56
2022-10-14T07:24:37.586Z,83.37
2022-10-14T07:27:11.463Z,83.23
2022-10-14T07:29:42.495Z,83.35
2022-10-14T07:32:13.756Z,83.22
2022-10-14T07:34:44.771Z,83.03
2022-10-14T07:37:15.714Z,82.61
2022-10-14T07:39:47.073Z,82.56
2022-10-14T07:42:18.122Z,82.53
2022-10-14T07:44:49.063Z,82.06
2022-10-14T07:47:20.781Z,81.92
2022-10-14T07:50:02.407Z,81.70
2022-10-14T07:52:33.612Z,81.30
2022-10-14T07:55:05.351Z,81.22
2022-10-14T07:57:36.576Z,81.07
2022-10-14T08:00:09.333Z,80.87
2022-10-14T08:02:40.907Z,80.92
2022-10-14T08:05:37.059Z,80.90
2022-10-14T08:08:03.474Z,80.46
2022-10-14T08:10:34.358Z,80.43
2022-10-14T08:13:05.240Z,80.26
2022-10-14T08:15:40.491Z,80.28
2022-10-14T08:18:12.906Z,80.13
2022-10-14T08:20:43.864Z,79.87
2022-10-14T08:23:27.910Z,79.34
2022-10-14T08:25:58.952Z,79.24
2022-10-14T08:28:29.937Z,79.33
2022-10-14T08:31:01.124Z,79.43
2022-10-14T08:33:32.134Z,79.25
2022-10-14T08:36:09.237Z,79.17
2022-10-14T08:38:40.289Z,78.92
2022-10-14T08:41:27.815Z,78.35
2022-10-14T08:44:13.722Z,78.08
2022-10-14T08:46:51.203Z,78.22
2022-10-14T08:49:28.379Z,78.06
2022-10-14T08:52:03.938Z,77.90
2022-10-14T08:54:40.508Z,78.06
2022-10-14T08:57:18.159Z,77.87
2022-10-14T08:59:49.237Z,77.77
2022-10-14T09:02:28.670Z,77.74
2022-10-14T09:05:14.546Z,77.91
2022-10-14T09:07:46.937Z,77.70
2022-10-14T09:10:24.726Z,77.76
2022-10-14T09:12:59.630Z,77.76
2022-10-14T09:15:38.187Z,77.75
2022-10-14T09:18:21.152Z,77.85
2022-10-14T09:20:53.000Z,77.85
2022-10-14T09:23:26.021Z,77.70
2022-10-14T09:26:06.648Z,77.38
2022-10-14T09:28:40.622Z,77.31
2022-10-14T09:31:14.980Z,77.54
2022-10-14T09:33:47.249Z,77.02
2022-10-14T09:36:22.184Z,76.82
2022-10-14T09:38:56.424Z,76.82
2022-10-14T09:41:31.541Z,76.83
2022-10-14T09:44:18.718Z,77.04
2022-10-14T09:46:58.093Z,76.59
2022-10-14T09:49:39.200Z,76.51
2022-10-14T09:52:21.579Z,76.08
2022-10-14T09:54:58.815Z,75.98
2022-10-14T09:57:45.742Z,75.73
2022-10-14T10:00:30.840Z,75.40
2022-10-14T10:03:01.812Z,75.34
2022-10-14T10:05:34.983Z,74.91
2022-10-14T10:08:16.164Z,74.44
2022-10-14T10:11:03.713Z,74.74
2022-10-14T10:13:43.328Z,75.18
2022-10-14T10:16:27.190Z,74.88
2022-10-14T10:19:33.008Z,74.47
2022-10-14T10:22:43.058Z,74.47
2022-10-14T10:25:26.763Z,73.86
2022-10-14T10:28:00.416Z,74.17
2022-10-14T10:30:36.721Z,74.24
2022-10-14T10:33:21.291Z,73.69
2022-10-14T10:36:13.519Z,72.77
2022-10-14T10:38:56.654Z,72.12
2022-10-14T10:41:41.926Z,72.25
2022-10-14T10:44:40.333Z,72.63
2022-10-14T10:47:31.577Z,72.74
2022-10-14T10:50:17.019Z,71.59
2022-10-14T10:53:01.368Z,71.87
2022-10-14T10:55:41.385Z,71.02
2022-10-14T10:58:28.280Z,71.41
2022-10-14T11:01:03.121Z,70.85
2022-10-14T11:03:53.664Z,71.31
2022-10-14T11:06:47.825Z,70.88
2022-10-14T11:09:44.683Z,70.57
2022-10-14T11:12:23.642Z,70.77
2022-10-14T11:15:10.981Z,71.12
2022-10-14T11:17:48.411Z,71.13
2022-10-14T11:20:50.878Z,70.49
2022-10-14T11:23:43.843Z,69.75
2022-10-14T11:26:27.645Z,70.39
2022-10-14T11:29:06.271Z,70.53
2022-10-14T11:31:51.508Z,70.22
2022-10-14T11:34:36.099Z,70.49
2022-10-14T11:37:22.391Z,70.08
2022-10-14T11:39:59.474Z,70.21
2022-10-14T11:42:34.101Z,70.05
2022-10-14T11:45:21.149Z,69.76
2022-10-14T11:47:56.039Z,69.06
2022-10-14T11:50:32.140Z,68.81
2022-10-14T11:53:13.258Z,69.15
2022-10-14T11:55:50.874Z,68.93
2022-10-14T11:58:26.842Z,69.60
2022-10-14T12:01:02.483Z,70.24
2022-10-14T12:03:47.174Z,70.78
2022-10-14T12:06:21.980Z,69.47
2022-10-14T12:08:57.537Z,69.01
2022-10-14T12:11:34.230Z,68.55
2022-10-14T12:14:12.999Z,68.80
2022-10-14T12:16:47.704Z,68.67
2022-10-14T12:19:24.882Z,68.91
2022-10-14T12:21:59.337Z,69.08
2022-10-14T12:24:35.050Z,69.36
2022-10-14T12:27:09.675Z,69.21
2022-10-14T12:30:07.156Z,69.17
2022-10-14T12:33:06.677Z,69.48
2022-10-14T12:35:59.476Z,69.67
2022-10-14T12:38:34.649Z,69.83
2022-10-14T12:41:39.727Z,69.76
2022-10-14T12:44:18.791Z,70.07
2022-10-14T12:46:52.959Z,70.41
2022-10-14T12:49:29.394Z,69.98
2022-10-14T12:52:02.997Z,70.19
2022-10-14T12:54:35.674Z,70.62
2022-10-14T12:57:17.095Z,70.94
2022-10-14T12:59:53.136Z,70.91
2022-10-14T13:02:33.271Z,70.79
2022-10-14T13:05:07.293Z,70.97
2022-10-14T13:07:46.573Z,70.46
2022-10-14T13:10:47.271Z,70.45
2022-10-14T13:13:58.968Z,70.64
2022-10-14T13:16:57.361Z,70.82
2022-10-14T13:19:45.819Z,70.91
2022-10-14T13:22:39.202Z,71.08
2022-10-14T13:25:22.036Z,71.29
2022-10-14T13:28:22.788Z,71.55
2022-10-14T13:31:03.769Z,71.81
2022-10-14T13:33:42.790Z,72.00
2022-10-14T13:36:21.739Z,72.31
2022-10-14T13:39:00.280Z,72.52
2022-10-14T13:41:34.704Z,72.76
2022-10-14T13:44:06.334Z,73.06
2022-10-14T13:46:41.777Z,73.51
2022-10-14T13:49:18.453Z,74.13
2022-10-14T13:51:51.463Z,74.82
2022-10-14T13:54:24.636Z,75.30
2022-10-14T14:02:49.056Z,76.06
2022-10-14T14:05:22.699Z,76.39
2022-10-14T14:11:15.111Z,77.29
2022-10-14T14:13:56.102Z,77.65
2022-10-14T14:16:33.179Z,77.48
2022-10-14T14:19:09.232Z,77.24
2022-10-14T14:21:41.301Z,77.16
2022-10-14T14:24:19.813Z,77.45
2022-10-14T14:26:53.655Z,77.82
2022-10-14T14:29:29.219Z,77.87
2022-10-14T14:32:06.617Z,77.71
2022-10-14T14:34:39.987Z,77.78
2022-10-14T14:37:37.072Z,77.69
2022-10-14T14:40:18.214Z,77.96
2022-10-14T14:42:51.274Z,78.29
2022-10-14T14:45:25.625Z,78.32
2022-10-14T14:47:58.925Z,78.57
2022-10-14T14:50:33.770Z,78.77
2022-10-14T14:53:08.473Z,78.87
2022-10-14T14:56:00.406Z,79.15
2022-10-14T14:58:36.148Z,79.30
2022-10-14T15:01:08.367Z,79.32
2022-10-14T15:04:13.039Z,79.39
2022-10-14T15:06:50.906Z,79.41
2022-10-14T15:09:31.691Z,79.39
2022-10-14T15:12:05.481Z,79.53
2022-10-14T15:14:43.426Z,79.67
2022-10-14T15:17:29.530Z,79.64
2022-10-14T15:20:21.564Z,79.61
2022-10-14T15:22:52.984Z,79.93
2022-10-14T15:25:30.251Z,79.82
2022-10-14T15:28:03.069Z,79.40
2022-10-14T15:30:51.938Z,79.22
2022-10-14T15:33:24.930Z,78.92
2022-10-14T15:36:00.050Z,78.30
2022-10-14T15:41:07.750Z,77.87
2022-10-14T15:43:40.051Z,77.97
2022-10-14T15:46:26.331Z,78.09
2022-10-14T15:49:03.217Z,78.19
2022-10-14T15:51:34.400Z,78.13
2022-10-14T15:54:06.497Z,78.06
2022-10-14T15:56:39.246Z,77.86
2022-10-14T15:59:10.174Z,77.95
2022-10-14T16:01:41.653Z,78.00
2022-10-14T16:04:19.702Z,77.91
2022-10-14T16:07:35.385Z,77.86
2022-10-14T16:10:13.006Z,78.05
2022-10-14T16:12:44.296Z,78.01
2022-10-14T16:15:26.277Z,77.89
2022-10-14T16:17:57.441Z,77.82
2022-10-14T16:20:31.002Z,77.90
2022-10-14T16:23:04.723Z,78.07
2022-10-14T16:25:40.037Z,78.00
2022-10-14T16:28:11.538Z,78.12
2022-10-14T16:30:46.224Z,78.13
2022-10-14T16:33:19.263Z,78.16
2022-10-14T16:35:54.495Z,78.21
2022-10-14T16:38:26.005Z,78.38
2022-10-14T16:41:21.124Z,78.74
2022-10-14T16:43:55.048Z,79.13
2022-10-14T16:46:45.988Z,79.14
2022-10-14T16:49:17.175Z,79.44
2022-10-14T16:51:48.318Z,79.72
2022-10-14T16:54:28.638Z,79.79
2022-10-14T16:56:59.613Z,79.82
2022-10-14T16:59:30.730Z,79.67
2022-10-14T17:02:03.038Z,79.75
2022-10-14T17:04:34.030Z,79.78
2022-10-14T17:07:07.575Z,79.87
2022-10-14T17:09:42.746Z,80.01
2022-10-14T17:12:14.263Z,80.16
2022-10-14T17:15:12.609Z,80.13
2022-10-14T17:17:43.754Z,80.22
2022-10-14T17:20:14.510Z,80.32
2022-10-14T17:22:44.099Z,80.26
2022-10-14T17:25:13.834Z,80.49
2022-10-14T17:27:44.761Z,80.76
2022-10-14T17:30:16.836Z,80.99
2022-10-14T17:32:47.769Z,81.19
2022-10-14T17:35:17.108Z,81.35
2022-10-14T17:37:47.932Z,81.53
2022-10-14T17:40:18.746Z,81.50
2022-10-14T17:42:51.000Z,81.37
2022-10-14T17:45:21.853Z,81.37
2022-10-14T17:47:51.119Z,81.18
2022-10-14T17:50:22.847Z,81.30
2022-10-14T17:52:53.822Z,81.23
2022-10-14T17:55:25.173Z,81.50
2022-10-14T17:57:56.201Z,81.55
2022-10-14T18:00:25.565Z,81.53
2022-10-14T18:02:56.514Z,81.58
2022-10-14T18:05:26.255Z,81.75
2022-10-14T18:07:57.407Z,81.95
2022-10-14T18:10:28.793Z,82.16
2022-10-14T18:12:59.969Z,82.11
2022-10-14T18:15:31.350Z,82.14
2022-10-14T18:18:02.302Z,82.26
2022-10-14T18:20:35.003Z,82.48
2022-10-14T18:23:07.636Z,82.57
2022-10-14T18:25:38.608Z,82.79
2022-10-14T18:28:07.960Z,82.93
2022-10-14T18:30:38.872Z,83.05
2022-10-14T18:33:08.197Z,83.13
2022-10-14T18:35:39.351Z,83.19
2022-10-14T18:38:08.670Z,83.35
2022-10-14T18:40:39.650Z,83.45
2022-10-14T18:43:10.597Z,83.55
2022-10-14T18:45:41.427Z,83.59
2022-10-14T18:48:13.468Z,83.57
2022-10-14T18:50:44.378Z,83.60
2022-10-14T18:53:15.274Z,83.38
2022-10-14T18:55:46.266Z,83.30
2022-10-14T18:58:20.082Z,83.30
2022-10-14T19:00:51.977Z,83.39
2022-10-14T19:03:23.278Z,83.40
2022-10-14T19:05:54.344Z,83.33
2022-10-14T19:08:25.109Z,83.32
2022-10-14T19:11:03.103Z,83.17
2022-10-14T19:13:34.719Z,83.36
2022-10-14T19:16:08.328Z,83.52
2022-10-14T19:18:39.259Z,83.69
2022-10-14T19:21:12.320Z,83.72
2022-10-14T19:23:45.131Z,83.81
2022-10-14T19:26:18.192Z,83.79
2022-10-14T19:28:50.288Z,83.89
2022-10-14T19:31:24.959Z,83.88
2022-10-14T19:33:56.897Z,83.89
2022-10-14T19:36:28.280Z,83.87
2022-10-14T19:39:00.015Z,83.88
2022-10-14T19:41:32.632Z,83.88
2022-10-14T19:44:03.843Z,83.82
2022-10-14T19:46:33.142Z,83.88
2022-10-14T19:49:04.848Z,83.84
2022-10-14T19:51:36.553Z,83.77
2022-10-14T19:54:08.054Z,83.87
2022-10-14T19:56:39.003Z,84.03
2022-10-14T19:59:10.653Z,84.08
2022-10-14T20:01:41.607Z,84.15
2022-10-14T20:04:12.715Z,84.25
2022-10-14T20:06:45.091Z,84.19
2022-10-14T20:09:16.347Z,84.22
2022-10-14T20:11:47.808Z,84.27
2022-10-14T20:14:19.072Z,84.29
2022-10-14T20:16:53.606Z,84.19
2022-10-14T20:19:27.325Z,84.15
2022-10-14T20:22:00.616Z,84.04
2022-10-14T20:24:32.424Z,83.92
2022-10-14T20:27:05.613Z,83.88
2022-10-14T20:29:39.402Z,83.81
2022-10-14T20:32:10.519Z,83.78
2022-10-14T20:34:41.908Z,83.72
2022-10-14T20:37:12.818Z,83.60
2022-10-14T20:39:44.038Z,83.62
2022-10-14T20:42:15.045Z,83.73
2022-10-14T20:44:45.985Z,83.67
2022-10-14T20:47:17.187Z,83.70
2022-10-14T20:49:48.351Z,83.60
2022-10-14T20:52:19.294Z,83.58
2022-10-14T20:54:50.603Z,83.47
2022-10-14T20:57:21.772Z,83.53
2022-10-14T20:59:52.988Z,83.53
2022-10-14T21:02:24.831Z,83.34
2022-10-14T21:04:56.149Z,83.38
2022-10-14T21:07:27.700Z,83.47
2022-10-14T21:09:58.583Z,83.53
2022-10-14T21:12:29.591Z,83.56
2022-10-14T21:15:00.764Z,83.56
2022-10-14T21:17:31.695Z,83.40
2022-10-14T21:20:02.854Z,83.32
2022-10-14T21:22:33.904Z,83.41
2022-10-14T21:25:04.834Z,83.31
2022-10-14T21:27:35.757Z,83.26
2022-10-14T21:30:05.422Z,83.23
2022-10-14T21:32:36.593Z,83.17
2022-10-14T21:35:09.045Z,83.31
2022-10-14T21:37:40.008Z,83.29
2022-10-14T21:40:13.048Z,83.12
2022-10-14T21:42:44.314Z,82.97
2022-10-14T21:45:15.217Z,82.98
2022-10-14T21:47:46.542Z,83.15
2022-10-14T21:50:17.885Z,83.18
2022-10-14T21:52:48.856Z,83.46
2022-10-14T21:55:19.979Z,83.43
2022-10-14T21:57:51.516Z,83.20
2022-10-14T22:00:22.663Z,83.19
2022-10-14T22:02:55.737Z,83.08
2022-10-14T22:05:26.837Z,83.11
2022-10-14T22:07:57.764Z,83.45
2022-10-14T22:10:44.865Z,84.14
2022-10-14T22:13:15.712Z,84.11
2022-10-14T22:15:46.744Z,84.16
2022-10-14T22:18:17.731Z,84.20
2022-10-14T22:20:49.253Z,84.15
2022-10-14T22:23:20.140Z,84.32
2022-10-14T22:25:49.610Z,84.42
2022-10-14T22:28:20.681Z,84.60
2022-10-14T22:30:51.878Z,84.53
2022-10-14T22:33:23.025Z,84.52
2022-10-14T22:35:53.915Z,84.47
2022-10-14T22:38:24.840Z,84.35
2022-10-14T22:40:55.676Z,84.39
2022-10-14T22:43:26.483Z,84.56
2022-10-14T22:46:03.510Z,84.79
2022-10-14T22:48:34.811Z,84.71
2022-10-14T22:51:08.057Z,84.82
2022-10-14T22:53:40.347Z,84.84
2022-10-14T22:56:13.741Z,84.89
2022-10-14T22:58:44.798Z,85.33
2022-10-14T23:01:17.496Z,85.49
2022-10-14T23:03:48.335Z,85.42
2022-10-14T23:06:19.386Z,85.57
2022-10-14T23:08:50.952Z,85.59
2022-10-14T23:11:23.512Z,85.71
2022-10-14T23:13:55.030Z,85.80
2022-10-14T23:16:28.125Z,85.79
2022-10-14T23:19:00.591Z,85.57
2022-10-14T23:21:33.066Z,85.50
2022-10-14T23:24:06.269Z,85.51
2022-10-14T23:26:38.058Z,85.49
2022-10-14T23:29:11.580Z,85.40
2022-10-14T23:31:42.737Z,85.54
2022-10-14T23:34:13.666Z,85.61
2022-10-14T23:36:44.816Z,85.70
2022-10-14T23:39:16.155Z,85.83
2022-10-14T23:41:47.204Z,85.99
2022-10-14T23:44:18.284Z,85.80
2022-10-14T23:46:50.378Z,85.77
2022-10-14T23:49:25.901Z,85.86
2022-10-14T23:51:57.611Z,86.11
2022-10-14T23:54:28.411Z,86.32
2022-10-14T23:56:59.293Z,86.85
2022-10-14T23:59:30.158Z,87.34
